sensor_id;sensor_type;location;lat;lon;timestamp;pressure;altitude;pressure_sealevel;temperature;humidity
59493;BME280;45497;43.996;22.876;2023-07-16T00:00:10;101166.44;;;26.56;51.07
59493;BME280;45497;43.996;22.876;2023-07-16T00:02:37;101165.59;;;26.45;51.15
59493;BME280;45497;43.996;22.876;2023-07-16T00:05:03;101165.84;;;26.39;51.49
59493;BME280;45497;43.996;22.876;2023-07-16T00:07:29;101163.94;;;26.44;50.93
59493;BME280;45497;43.996;22.876;2023-07-16T00:09:55;101153.28;;;26.32;51.45
59493;BME280;45497;43.996;22.876;2023-07-16T00:12:20;101157.31;;;26.20;51.78
59493;BME280;45497;43.996;22.876;2023-07-16T00:14:47;101155.09;;;26.11;51.88
59493;BME280;45497;43.996;22.876;2023-07-16T00:17:12;101160.81;;;26.15;52.04
59493;BME280;45497;43.996;22.876;2023-07-16T00:19:38;101164.94;;;26.23;51.77
59493;BME280;45497;43.996;22.876;2023-07-16T00:22:03;101160.63;;;26.32;51.57
59493;BME280;45497;43.996;22.876;2023-07-16T00:24:29;101156.88;;;26.38;51.17
59493;BME280;45497;43.996;22.876;2023-07-16T00:26:54;101153.59;;;26.41;51.04
59493;BME280;45497;43.996;22.876;2023-07-16T00:29:20;101161.00;;;26.51;50.58
59493;BME280;45497;43.996;22.876;2023-07-16T00:31:45;101154.19;;;26.54;50.76
59493;BME280;45497;43.996;22.876;2023-07-16T00:34:10;101157.97;;;26.42;51.22
59493;BME280;45497;43.996;22.876;2023-07-16T00:36:38;101155.50;;;26.41;51.41
59493;BME280;45497;43.996;22.876;2023-07-16T00:39:04;101151.41;;;26.33;51.44
59493;BME280;45497;43.996;22.876;2023-07-16T00:41:29;101146.94;;;26.11;52.12
59493;BME280;45497;43.996;22.876;2023-07-16T00:43:55;101147.41;;;25.93;52.94
59493;BME280;45497;43.996;22.876;2023-07-16T00:46:21;101152.44;;;25.79;53.27
59493;BME280;45497;43.996;22.876;2023-07-16T00:48:47;101147.53;;;25.81;53.34
59493;BME280;45497;43.996;22.876;2023-07-16T00:51:12;101146.44;;;25.77;53.58
59493;BME280;45497;43.996;22.876;2023-07-16T00:53:41;101147.63;;;25.54;54.15
59493;BME280;45497;43.996;22.876;2023-07-16T00:56:08;101149.94;;;25.40;54.63
59493;BME280;45497;43.996;22.876;2023-07-16T00:58:34;101149.34;;;25.33;55.03
59493;BME280;45497;43.996;22.876;2023-07-16T01:01:00;101145.44;;;25.24;55.21
59493;BME280;45497;43.996;22.876;2023-07-16T01:03:25;101151.47;;;25.26;55.20
59493;BME280;45497;43.996;22.876;2023-07-16T01:08:46;101154.06;;;25.43;54.69
59493;BME280;45497;43.996;22.876;2023-07-16T01:11:14;101157.78;;;25.36;54.93
59493;BME280;45497;43.996;22.876;2023-07-16T01:13:41;101158.53;;;25.27;54.94
59493;BME280;45497;43.996;22.876;2023-07-16T01:16:18;101163.66;;;25.01;56.14
59493;BME280;45497;43.996;22.876;2023-07-16T01:18:45;101155.38;;;24.86;56.74
59493;BME280;45497;43.996;22.876;2023-07-16T01:21:10;101160.56;;;24.87;56.86
59493;BME280;45497;43.996;22.876;2023-07-16T01:29:13;101156.13;;;24.81;57.27
59493;BME280;45497;43.996;22.876;2023-07-16T01:31:46;101158.81;;;24.54;58.34
59493;BME280;45497;43.996;22.876;2023-07-16T01:34:13;101150.25;;;24.45;58.80
59493;BME280;45497;43.996;22.876;2023-07-16T01:36:39;101156.59;;;24.51;58.54
59493;BME280;45497;43.996;22.876;2023-07-16T01:39:05;101148.88;;;24.42;58.67
59493;BME280;45497;43.996;22.876;2023-07-16T01:41:31;101151.59;;;24.42;58.48
59493;BME280;45497;43.996;22.876;2023-07-16T01:43:56;101164.34;;;24.42;58.86
59493;BME280;45497;43.996;22.876;2023-07-16T01:46:22;101156.22;;;24.42;58.74
59493;BME280;45497;43.996;22.876;2023-07-16T01:48:47;101162.94;;;24.39;59.07
59493;BME280;45497;43.996;22.876;2023-07-16T01:51:13;101156.50;;;24.23;59.32
59493;BME280;45497;43.996;22.876;2023-07-16T01:53:40;101160.94;;;24.13;59.84
59493;BME280;45497;43.996;22.876;2023-07-16T01:56:05;101160.13;;;24.12;59.87
59493;BME280;45497;43.996;22.876;2023-07-16T01:58:31;101167.66;;;24.27;59.00
59493;BME280;45497;43.996;22.876;2023-07-16T02:00:56;101161.38;;;24.43;58.48
59493;BME280;45497;43.996;22.876;2023-07-16T02:03:22;101159.97;;;24.58;58.00
59493;BME280;45497;43.996;22.876;2023-07-16T02:05:48;101161.25;;;24.55;58.14
59493;BME280;45497;43.996;22.876;2023-07-16T02:08:13;101168.09;;;24.58;58.13
59493;BME280;45497;43.996;22.876;2023-07-16T02:10:39;101160.84;;;24.24;59.54
59493;BME280;45497;43.996;22.876;2023-07-16T02:13:05;101160.78;;;24.19;59.85
59493;BME280;45497;43.996;22.876;2023-07-16T02:15:30;101165.69;;;24.22;59.51
59493;BME280;45497;43.996;22.876;2023-07-16T02:17:56;101166.28;;;24.24;59.34
59493;BME280;45497;43.996;22.876;2023-07-16T02:20:21;101158.88;;;24.20;59.38
59493;BME280;45497;43.996;22.876;2023-07-16T02:22:47;101158.06;;;24.19;59.20
59493;BME280;45497;43.996;22.876;2023-07-16T02:25:12;101164.75;;;24.34;58.82
59493;BME280;45497;43.996;22.876;2023-07-16T02:27:38;101169.75;;;24.42;58.42
59493;BME280;45497;43.996;22.876;2023-07-16T02:30:06;101178.94;;;24.41;58.69
59493;BME280;45497;43.996;22.876;2023-07-16T02:32:33;101164.19;;;24.32;58.86
59493;BME280;45497;43.996;22.876;2023-07-16T02:34:58;101172.66;;;24.35;58.68
59493;BME280;45497;43.996;22.876;2023-07-16T02:37:24;101175.44;;;24.23;59.05
59493;BME280;45497;43.996;22.876;2023-07-16T02:39:49;101178.56;;;24.32;58.69
59493;BME280;45497;43.996;22.876;2023-07-16T02:42:15;101174.22;;;24.31;58.68
59493;BME280;45497;43.996;22.876;2023-07-16T02:44:40;101177.81;;;24.37;58.46
59493;BME280;45497;43.996;22.876;2023-07-16T02:47:10;101171.53;;;24.14;59.28
59493;BME280;45497;43.996;22.876;2023-07-16T02:49:37;101178.63;;;23.98;59.99
59493;BME280;45497;43.996;22.876;2023-07-16T02:52:02;101176.31;;;24.07;59.74
59493;BME280;45497;43.996;22.876;2023-07-16T02:54:28;101174.56;;;24.18;59.29
59493;BME280;45497;43.996;22.876;2023-07-16T02:56:53;101175.03;;;24.32;58.56
59493;BME280;45497;43.996;22.876;2023-07-16T02:59:19;101177.88;;;24.42;58.31
59493;BME280;45497;43.996;22.876;2023-07-16T03:01:44;101177.63;;;24.43;58.23
59493;BME280;45497;43.996;22.876;2023-07-16T03:04:10;101174.41;;;24.47;57.90
59493;BME280;45497;43.996;22.876;2023-07-16T03:06:35;101179.41;;;24.33;58.54
59493;BME280;45497;43.996;22.876;2023-07-16T03:09:01;101174.16;;;24.26;58.94
59493;BME280;45497;43.996;22.876;2023-07-16T03:11:26;101178.81;;;24.31;58.84
59493;BME280;45497;43.996;22.876;2023-07-16T03:13:52;101181.31;;;23.98;60.06
59493;BME280;45497;43.996;22.876;2023-07-16T03:16:17;101176.56;;;24.05;59.87
59493;BME280;45497;43.996;22.876;2023-07-16T03:18:44;101182.09;;;23.94;60.38
59493;BME280;45497;43.996;22.876;2023-07-16T03:21:10;101181.59;;;23.80;60.70
59493;BME280;45497;43.996;22.876;2023-07-16T03:23:36;101194.22;;;23.91;60.58
59493;BME280;45497;43.996;22.876;2023-07-16T03:26:01;101196.09;;;24.08;60.04
59493;BME280;45497;43.996;22.876;2023-07-16T03:28:27;101183.78;;;24.17;59.75
59493;BME280;45497;43.996;22.876;2023-07-16T03:30:52;101186.13;;;24.30;59.30
59493;BME280;45497;43.996;22.876;2023-07-16T03:33:19;101185.38;;;24.35;59.09
59493;BME280;45497;43.996;22.876;2023-07-16T03:35:45;101191.44;;;24.42;58.75
59493;BME280;45497;43.996;22.876;2023-07-16T03:38:11;101183.56;;;24.40;58.95
59493;BME280;45497;43.996;22.876;2023-07-16T03:40:37;101185.78;;;24.43;59.03
59493;BME280;45497;43.996;22.876;2023-07-16T03:43:03;101197.16;;;24.46;58.75
59493;BME280;45497;43.996;22.876;2023-07-16T03:45:28;101198.66;;;24.53;58.71
59493;BME280;45497;43.996;22.876;2023-07-16T03:47:53;101198.88;;;24.52;58.68
59493;BME280;45497;43.996;22.876;2023-07-16T03:50:19;101204.22;;;24.64;58.43
59493;BME280;45497;43.996;22.876;2023-07-16T03:52:45;101204.69;;;24.83;58.10
59493;BME280;45497;43.996;22.876;2023-07-16T03:55:10;101200.13;;;24.88;57.63
59493;BME280;45497;43.996;22.876;2023-07-16T03:57:35;101209.50;;;24.97;57.49
59493;BME280;45497;43.996;22.876;2023-07-16T04:00:02;101209.53;;;25.03;57.27
59493;BME280;45497;43.996;22.876;2023-07-16T04:02:29;101197.31;;;25.00;57.37
59493;BME280;45497;43.996;22.876;2023-07-16T04:04:54;101211.47;;;25.07;57.31
59493;BME280;45497;43.996;22.876;2023-07-16T04:07:20;101215.13;;;25.18;57.02
59493;BME280;45497;43.996;22.876;2023-07-16T04:09:45;101222.38;;;25.34;56.85
59493;BME280;45497;43.996;22.876;2023-07-16T04:12:11;101209.41;;;25.42;56.65
59493;BME280;45497;43.996;22.876;2023-07-16T04:14:36;101208.34;;;25.43;56.12
59493;BME280;45497;43.996;22.876;2023-07-16T04:17:02;101226.41;;;25.59;55.83
59493;BME280;45497;43.996;22.876;2023-07-16T04:19:28;101218.31;;;25.64;55.73
59493;BME280;45497;43.996;22.876;2023-07-16T04:21:53;101220.31;;;25.79;55.71
59493;BME280;45497;43.996;22.876;2023-07-16T04:24:19;101224.47;;;25.92;55.07
59493;BME280;45497;43.996;22.876;2023-07-16T04:26:44;101219.56;;;25.89;55.21
59493;BME280;45497;43.996;22.876;2023-07-16T04:29:10;101217.25;;;26.03;54.88
59493;BME280;45497;43.996;22.876;2023-07-16T04:31:35;101225.22;;;26.15;54.68
59493;BME280;45497;43.996;22.876;2023-07-16T04:34:01;101226.13;;;26.30;54.33
59493;BME280;45497;43.996;22.876;2023-07-16T04:36:26;101223.16;;;26.37;54.03
59493;BME280;45497;43.996;22.876;2023-07-16T04:38:52;101220.81;;;26.51;53.45
59493;BME280;45497;43.996;22.876;2023-07-16T04:41:17;101217.88;;;26.63;53.20
59493;BME280;45497;43.996;22.876;2023-07-16T04:43:42;101227.44;;;26.65;53.21
59493;BME280;45497;43.996;22.876;2023-07-16T04:46:08;101235.03;;;26.68;52.99
59493;BME280;45497;43.996;22.876;2023-07-16T04:48:33;101226.13;;;26.78;52.76
59493;BME280;45497;43.996;22.876;2023-07-16T04:50:59;101231.88;;;26.87;52.42
59493;BME280;45497;43.996;22.876;2023-07-16T04:53:24;101232.72;;;26.98;52.14
59493;BME280;45497;43.996;22.876;2023-07-16T04:55:50;101224.84;;;27.01;52.40
59493;BME280;45497;43.996;22.876;2023-07-16T04:58:16;101218.88;;;27.20;52.03
59493;BME280;45497;43.996;22.876;2023-07-16T05:00:41;101227.09;;;27.30;51.98
59493;BME280;45497;43.996;22.876;2023-07-16T05:03:07;101225.47;;;27.34;51.61
59493;BME280;45497;43.996;22.876;2023-07-16T05:05:33;101228.22;;;27.44;51.32
59493;BME280;45497;43.996;22.876;2023-07-16T05:07:58;101227.38;;;27.54;51.29
59493;BME280;45497;43.996;22.876;2023-07-16T05:10:24;101232.56;;;27.56;51.12
59493;BME280;45497;43.996;22.876;2023-07-16T05:12:49;101238.53;;;27.78;50.95
59493;BME280;45497;43.996;22.876;2023-07-16T05:15:15;101232.00;;;27.74;50.70
59493;BME280;45497;43.996;22.876;2023-07-16T05:17:41;101241.28;;;27.78;51.01
59493;BME280;45497;43.996;22.876;2023-07-16T05:20:07;101232.88;;;27.90;50.59
59493;BME280;45497;43.996;22.876;2023-07-16T05:22:33;101234.19;;;28.13;50.12
59493;BME280;45497;43.996;22.876;2023-07-16T05:24:58;101227.34;;;28.21;49.88
59493;BME280;45497;43.996;22.876;2023-07-16T05:27:24;101238.78;;;28.23;49.98
59493;BME280;45497;43.996;22.876;2023-07-16T05:29:49;101235.75;;;28.45;49.64
59493;BME280;45497;43.996;22.876;2023-07-16T05:32:15;101241.44;;;28.59;49.43
59493;BME280;45497;43.996;22.876;2023-07-16T05:34:40;101240.63;;;28.64;48.96
59493;BME280;45497;43.996;22.876;2023-07-16T05:37:06;101245.81;;;28.65;49.01
59493;BME280;45497;43.996;22.876;2023-07-16T05:39:31;101245.69;;;28.91;48.87
59493;BME280;45497;43.996;22.876;2023-07-16T05:41:57;101241.72;;;29.23;47.19
59493;BME280;45497;43.996;22.876;2023-07-16T05:44:22;101243.50;;;29.43;47.14
59493;BME280;45497;43.996;22.876;2023-07-16T05:46:48;101249.06;;;29.62;46.97
59493;BME280;45497;43.996;22.876;2023-07-16T05:49:13;101246.25;;;29.77;46.45
59493;BME280;45497;43.996;22.876;2023-07-16T05:51:39;101245.81;;;29.60;46.77
59493;BME280;45497;43.996;22.876;2023-07-16T05:54:04;101248.69;;;29.44;47.05
59493;BME280;45497;43.996;22.876;2023-07-16T05:56:30;101253.28;;;29.49;47.29
59493;BME280;45497;43.996;22.876;2023-07-16T05:58:55;101244.69;;;29.66;46.85
59493;BME280;45497;43.996;22.876;2023-07-16T06:01:21;101241.28;;;29.84;46.11
59493;BME280;45497;43.996;22.876;2023-07-16T06:03:47;101259.38;;;30.09;45.50
59493;BME280;45497;43.996;22.876;2023-07-16T06:06:13;101241.63;;;30.31;44.69
59493;BME280;45497;43.996;22.876;2023-07-16T06:08:38;101244.09;;;30.33;44.34
59493;BME280;45497;43.996;22.876;2023-07-16T06:11:04;101250.06;;;30.40;44.18
59493;BME280;45497;43.996;22.876;2023-07-16T06:13:30;101246.16;;;30.46;44.03
59493;BME280;45497;43.996;22.876;2023-07-16T06:15:56;101244.97;;;30.52;43.72
59493;BME280;45497;43.996;22.876;2023-07-16T06:18:21;101240.28;;;30.58;43.43
59493;BME280;45497;43.996;22.876;2023-07-16T06:20:47;101247.00;;;30.65;43.42
59493;BME280;45497;43.996;22.876;2023-07-16T06:23:13;101241.94;;;30.78;43.34
59493;BME280;45497;43.996;22.876;2023-07-16T06:25:39;101248.09;;;30.88;43.40
59493;BME280;45497;43.996;22.876;2023-07-16T06:28:10;101246.94;;;30.95;42.63
59493;BME280;45497;43.996;22.876;2023-07-16T06:30:36;101244.47;;;30.93;42.79
59493;BME280;45497;43.996;22.876;2023-07-16T06:33:02;101247.13;;;30.79;43.20
59493;BME280;45497;43.996;22.876;2023-07-16T06:35:27;101244.06;;;31.05;42.59
59493;BME280;45497;43.996;22.876;2023-07-16T06:37:53;101242.78;;;31.16;42.31
59493;BME280;45497;43.996;22.876;2023-07-16T06:40:18;101243.53;;;31.22;42.11
59493;BME280;45497;43.996;22.876;2023-07-16T06:42:44;101247.16;;;31.36;41.99
59493;BME280;45497;43.996;22.876;2023-07-16T06:45:09;101247.38;;;31.40;41.78
59493;BME280;45497;43.996;22.876;2023-07-16T06:47:35;101247.44;;;31.35;41.90
59493;BME280;45497;43.996;22.876;2023-07-16T06:50:01;101249.16;;;31.31;42.21
59493;BME280;45497;43.996;22.876;2023-07-16T06:52:26;101242.19;;;31.38;41.76
59493;BME280;45497;43.996;22.876;2023-07-16T06:54:53;101256.63;;;31.44;41.97
59493;BME280;45497;43.996;22.876;2023-07-16T06:57:19;101252.78;;;31.64;41.70
59493;BME280;45497;43.996;22.876;2023-07-16T06:59:44;101245.72;;;31.77;41.66
59493;BME280;45497;43.996;22.876;2023-07-16T07:02:10;101241.03;;;31.77;41.64
59493;BME280;45497;43.996;22.876;2023-07-16T07:04:35;101250.41;;;31.90;41.23
59493;BME280;45497;43.996;22.876;2023-07-16T07:07:01;101235.81;;;31.95;41.14
59493;BME280;45497;43.996;22.876;2023-07-16T07:09:26;101241.94;;;32.06;41.14
59493;BME280;45497;43.996;22.876;2023-07-16T07:11:52;101239.91;;;32.11;40.45
59493;BME280;45497;43.996;22.876;2023-07-16T07:14:17;101245.72;;;32.24;40.35
59493;BME280;45497;43.996;22.876;2023-07-16T07:16:43;101231.50;;;32.22;40.90
59493;BME280;45497;43.996;22.876;2023-07-16T07:19:08;101225.09;;;32.40;40.47
59493;BME280;45497;43.996;22.876;2023-07-16T07:21:34;101233.13;;;32.64;39.69
59493;BME280;45497;43.996;22.876;2023-07-16T07:23:59;101234.88;;;32.60;40.08
59493;BME280;45497;43.996;22.876;2023-07-16T07:26:25;101232.63;;;32.62;40.26
59493;BME280;45497;43.996;22.876;2023-07-16T07:28:50;101223.28;;;32.63;39.72
59493;BME280;45497;43.996;22.876;2023-07-16T07:31:16;101213.31;;;32.67;39.74
59493;BME280;45497;43.996;22.876;2023-07-16T07:33:41;101221.44;;;32.72;39.82
59493;BME280;45497;43.996;22.876;2023-07-16T07:36:07;101223.25;;;32.77;39.66
59493;BME280;45497;43.996;22.876;2023-07-16T07:38:32;101224.03;;;32.91;39.83
59493;BME280;45497;43.996;22.876;2023-07-16T07:40:58;101229.31;;;32.88;39.72
59493;BME280;45497;43.996;22.876;2023-07-16T07:43:23;101226.97;;;32.95;39.35
59493;BME280;45497;43.996;22.876;2023-07-16T07:45:49;101218.53;;;32.91;39.35
59493;BME280;45497;43.996;22.876;2023-07-16T07:48:14;101217.13;;;32.94;39.19
59493;BME280;45497;43.996;22.876;2023-07-16T07:50:40;101214.31;;;33.08;38.99
59493;BME280;45497;43.996;22.876;2023-07-16T07:53:05;101224.78;;;33.20;38.92
59493;BME280;45497;43.996;22.876;2023-07-16T07:55:32;101217.69;;;33.05;39.06
59493;BME280;45497;43.996;22.876;2023-07-16T07:57:58;101222.53;;;33.22;38.88
59493;BME280;45497;43.996;22.876;2023-07-16T08:00:23;101215.06;;;33.00;39.39
59493;BME280;45497;43.996;22.876;2023-07-16T08:02:49;101220.28;;;33.24;39.36
59493;BME280;45497;43.996;22.876;2023-07-16T08:05:14;101216.91;;;33.27;39.28
59493;BME280;45497;43.996;22.876;2023-07-16T08:07:40;101217.75;;;33.50;38.91
59493;BME280;45497;43.996;22.876;2023-07-16T08:10:05;101224.78;;;33.65;38.91
59493;BME280;45497;43.996;22.876;2023-07-16T08:12:31;101225.31;;;33.67;38.49
59493;BME280;45497;43.996;22.876;2023-07-16T08:14:56;101220.63;;;33.67;38.48
59493;BME280;45497;43.996;22.876;2023-07-16T08:17:22;101224.06;;;33.73;38.17
59493;BME280;45497;43.996;22.876;2023-07-16T08:19:47;101220.81;;;33.71;37.97
59493;BME280;45497;43.996;22.876;2023-07-16T08:22:13;101222.59;;;33.76;38.22
59493;BME280;45497;43.996;22.876;2023-07-16T08:24:38;101216.22;;;33.89;37.87
59493;BME280;45497;43.996;22.876;2023-07-16T08:27:04;101219.16;;;33.93;38.02
59493;BME280;45497;43.996;22.876;2023-07-16T08:29:30;101214.19;;;34.03;37.84
59493;BME280;45497;43.996;22.876;2023-07-16T08:31:55;101219.34;;;34.05;37.68
59493;BME280;45497;43.996;22.876;2023-07-16T08:34:21;101215.13;;;33.99;37.79
59493;BME280;45497;43.996;22.876;2023-07-16T08:36:46;101217.13;;;34.16;37.77
59493;BME280;45497;43.996;22.876;2023-07-16T08:39:11;101217.69;;;34.26;37.73
59493;BME280;45497;43.996;22.876;2023-07-16T08:41:38;101212.66;;;34.28;37.59
59493;BME280;45497;43.996;22.876;2023-07-16T08:44:04;101218.50;;;34.36;37.69
59493;BME280;45497;43.996;22.876;2023-07-16T08:46:30;101207.66;;;34.39;37.40
59493;BME280;45497;43.996;22.876;2023-07-16T08:48:56;101204.78;;;34.44;37.48
59493;BME280;45497;43.996;22.876;2023-07-16T08:51:23;101216.31;;;34.64;36.98
59493;BME280;45497;43.996;22.876;2023-07-16T08:53:49;101215.38;;;34.69;36.60
59493;BME280;45497;43.996;22.876;2023-07-16T08:56:14;101213.63;;;34.73;36.80
59493;BME280;45497;43.996;22.876;2023-07-16T08:58:41;101207.81;;;34.92;36.06
59493;BME280;45497;43.996;22.876;2023-07-16T09:01:08;101202.31;;;34.92;36.29
59493;BME280;45497;43.996;22.876;2023-07-16T09:03:35;101203.75;;;35.07;35.85
59493;BME280;45497;43.996;22.876;2023-07-16T09:06:02;101208.59;;;35.18;35.77
59493;BME280;45497;43.996;22.876;2023-07-16T09:08:28;101213.63;;;35.16;35.85
59493;BME280;45497;43.996;22.876;2023-07-16T09:10:57;101207.63;;;35.14;35.91
59493;BME280;45497;43.996;22.876;2023-07-16T09:13:25;101211.22;;;35.23;35.81
59493;BME280;45497;43.996;22.876;2023-07-16T09:15:56;101208.63;;;35.27;35.80
59493;BME280;45497;43.996;22.876;2023-07-16T09:18:23;101208.47;;;35.32;35.83
59493;BME280;45497;43.996;22.876;2023-07-16T09:20:59;101202.47;;;35.30;35.51
59493;BME280;45497;43.996;22.876;2023-07-16T09:23:27;101205.19;;;35.48;35.57
59493;BME280;45497;43.996;22.876;2023-07-16T09:25:56;101206.47;;;35.50;35.29
59493;BME280;45497;43.996;22.876;2023-07-16T09:28:22;101204.50;;;35.59;34.90
59493;BME280;45497;43.996;22.876;2023-07-16T09:30:47;101199.47;;;35.61;35.11
59493;BME280;45497;43.996;22.876;2023-07-16T09:33:15;101200.78;;;35.73;35.49
59493;BME280;45497;43.996;22.876;2023-07-16T09:35:41;101202.19;;;35.88;34.56
59493;BME280;45497;43.996;22.876;2023-07-16T09:38:10;101203.47;;;35.90;34.35
59493;BME280;45497;43.996;22.876;2023-07-16T09:40:39;101200.34;;;36.01;34.05
59493;BME280;45497;43.996;22.876;2023-07-16T09:43:09;101195.16;;;35.99;34.37
59493;BME280;45497;43.996;22.876;2023-07-16T09:45:35;101196.09;;;36.03;34.44
59493;BME280;45497;43.996;22.876;2023-07-16T09:48:01;101203.72;;;36.06;33.95
59493;BME280;45497;43.996;22.876;2023-07-16T09:50:32;101190.56;;;36.03;33.91
59493;BME280;45497;43.996;22.876;2023-07-16T09:52:58;101189.56;;;36.16;33.91
59493;BME280;45497;43.996;22.876;2023-07-16T09:55:25;101179.34;;;36.08;33.93
59493;BME280;45497;43.996;22.876;2023-07-16T09:57:55;101186.38;;;36.06;34.04
59493;BME280;45497;43.996;22.876;2023-07-16T10:00:23;101186.78;;;36.16;33.50
59493;BME280;45497;43.996;22.876;2023-07-16T10:02:50;101183.88;;;36.22;33.74
59493;BME280;45497;43.996;22.876;2023-07-16T10:07:49;101183.06;;;36.21;33.67
59493;BME280;45497;43.996;22.876;2023-07-16T10:10:15;101184.03;;;36.16;34.02
59493;BME280;45497;43.996;22.876;2023-07-16T10:12:43;101175.63;;;36.13;34.12
59493;BME280;45497;43.996;22.876;2023-07-16T10:15:25;101177.34;;;36.17;33.83
59493;BME280;45497;43.996;22.876;2023-07-16T10:17:51;101169.41;;;36.25;33.99
59493;BME280;45497;43.996;22.876;2023-07-16T10:20:17;101156.56;;;36.29;33.97
59493;BME280;45497;43.996;22.876;2023-07-16T10:22:52;101161.81;;;36.43;33.86
59493;BME280;45497;43.996;22.876;2023-07-16T10:27:47;101156.56;;;36.50;33.23
59493;BME280;45497;43.996;22.876;2023-07-16T10:30:13;101158.78;;;36.57;32.86
59493;BME280;45497;43.996;22.876;2023-07-16T10:32:39;101155.69;;;36.58;31.87
59493;BME280;45497;43.996;22.876;2023-07-16T10:35:06;101153.81;;;36.50;31.64
59493;BME280;45497;43.996;22.876;2023-07-16T10:37:32;101156.22;;;36.51;31.47
59493;BME280;45497;43.996;22.876;2023-07-16T10:39:59;101141.91;;;36.58;32.20
59493;BME280;45497;43.996;22.876;2023-07-16T10:42:26;101146.81;;;36.52;31.83
59493;BME280;45497;43.996;22.876;2023-07-16T10:44:53;101153.06;;;36.62;31.44
59493;BME280;45497;43.996;22.876;2023-07-16T10:47:50;101138.13;;;36.63;31.48
59493;BME280;45497;43.996;22.876;2023-07-16T10:50:18;101145.13;;;36.60;31.50
59493;BME280;45497;43.996;22.876;2023-07-16T10:52:44;101134.22;;;36.64;31.48
59493;BME280;45497;43.996;22.876;2023-07-16T10:55:09;101139.56;;;36.69;30.68
59493;BME280;45497;43.996;22.876;2023-07-16T10:57:35;101138.06;;;36.71;30.32
59493;BME280;45497;43.996;22.876;2023-07-16T11:00:01;101130.94;;;36.70;29.31
59493;BME280;45497;43.996;22.876;2023-07-16T11:02:26;101138.47;;;36.82;29.23
59493;BME280;45497;43.996;22.876;2023-07-16T11:04:53;101123.84;;;36.82;29.04
59493;BME280;45497;43.996;22.876;2023-07-16T11:07:19;101123.91;;;36.94;28.87
59493;BME280;45497;43.996;22.876;2023-07-16T11:09:46;101119.19;;;36.95;29.04
59493;BME280;45497;43.996;22.876;2023-07-16T11:12:14;101121.94;;;37.16;29.00
59493;BME280;45497;43.996;22.876;2023-07-16T11:14:51;101123.91;;;37.27;29.32
59493;BME280;45497;43.996;22.876;2023-07-16T11:17:17;101119.78;;;37.34;29.19
59493;BME280;45497;43.996;22.876;2023-07-16T11:19:47;101120.25;;;37.36;29.31
59493;BME280;45497;43.996;22.876;2023-07-16T11:22:13;101116.69;;;37.35;29.04
59493;BME280;45497;43.996;22.876;2023-07-16T11:24:41;101117.84;;;37.46;28.95
59493;BME280;45497;43.996;22.876;2023-07-16T11:27:16;101107.25;;;37.48;28.76
59493;BME280;45497;43.996;22.876;2023-07-16T11:29:45;101096.75;;;37.54;28.69
59493;BME280;45497;43.996;22.876;2023-07-16T11:32:11;101106.59;;;37.64;28.40
59493;BME280;45497;43.996;22.876;2023-07-16T11:34:37;101104.41;;;37.70;28.06
59493;BME280;45497;43.996;22.876;2023-07-16T11:37:11;101096.78;;;37.66;28.07
59493;BME280;45497;43.996;22.876;2023-07-16T11:39:37;101094.81;;;37.67;27.81
59493;BME280;45497;43.996;22.876;2023-07-16T11:42:03;101092.66;;;37.73;27.81
59493;BME280;45497;43.996;22.876;2023-07-16T11:44:35;101091.03;;;37.72;27.83
59493;BME280;45497;43.996;22.876;2023-07-16T11:47:02;101092.88;;;37.80;27.21
59493;BME280;45497;43.996;22.876;2023-07-16T11:49:28;101093.81;;;37.84;27.20
59493;BME280;45497;43.996;22.876;2023-07-16T11:51:54;101090.47;;;37.91;27.40
59493;BME280;45497;43.996;22.876;2023-07-16T11:54:20;101085.50;;;37.84;27.22
59493;BME280;45497;43.996;22.876;2023-07-16T11:56:45;101082.38;;;37.73;27.34
59493;BME280;45497;43.996;22.876;2023-07-16T11:59:12;101081.81;;;37.67;27.67
59493;BME280;45497;43.996;22.876;2023-07-16T12:01:38;101080.66;;;37.68;28.52
59493;BME280;45497;43.996;22.876;2023-07-16T12:04:03;101084.09;;;37.78;27.85
59493;BME280;45497;43.996;22.876;2023-07-16T12:06:29;101089.28;;;37.92;28.44
59493;BME280;45497;43.996;22.876;2023-07-16T12:08:54;101086.06;;;38.02;27.95
59493;BME280;45497;43.996;22.876;2023-07-16T12:11:20;101087.81;;;37.94;28.02
59493;BME280;45497;43.996;22.876;2023-07-16T12:13:47;101078.91;;;38.01;28.05
59493;BME280;45497;43.996;22.876;2023-07-16T12:16:12;101081.78;;;37.92;28.10
59493;BME280;45497;43.996;22.876;2023-07-16T12:18:38;101083.19;;;37.86;28.12
59493;BME280;45497;43.996;22.876;2023-07-16T12:21:03;101082.94;;;37.91;28.13
59493;BME280;45497;43.996;22.876;2023-07-16T12:23:29;101085.94;;;37.98;28.22
59493;BME280;45497;43.996;22.876;2023-07-16T12:25:54;101085.50;;;37.84;28.22
59493;BME280;45497;43.996;22.876;2023-07-16T12:28:20;101075.00;;;37.90;28.22
59493;BME280;45497;43.996;22.876;2023-07-16T12:30:45;101076.03;;;37.85;28.64
59493;BME280;45497;43.996;22.876;2023-07-16T12:33:11;101073.38;;;37.88;28.31
59493;BME280;45497;43.996;22.876;2023-07-16T12:35:36;101076.00;;;37.97;28.29
59493;BME280;45497;43.996;22.876;2023-07-16T12:38:01;101070.25;;;38.02;27.93
59493;BME280;45497;43.996;22.876;2023-07-16T12:40:29;101076.25;;;37.92;28.05
59493;BME280;45497;43.996;22.876;2023-07-16T12:42:54;101071.53;;;38.05;28.42
59493;BME280;45497;43.996;22.876;2023-07-16T12:45:20;101059.72;;;38.08;28.35
59493;BME280;45497;43.996;22.876;2023-07-16T12:47:45;101076.84;;;37.98;28.45